Otay (75) Station Data

Red Flag Warning: No
Fire Weather Zone: 250
SDGE Region: Eastern
Lat/Lon: 32.72/-116.928

Observations

Time Wind Speed/Gust Temp(F) RH Fuel Moist Fuel Temp(F) Dewpt(F) Tmax(F) Tmin(F) Accum Precip 10-min Precip SL Press(mb)
2/27 11:40pm 238 9 G 15 52° 100% - - 52° 55.9° 49.5° - - -
2/27 11:20pm 250 4 G 11 52° 100% - - 52° 55.9° 49.5° - - -
2/27 11:10pm 266 7 G 15 52° 100% - - 52° 55.9° 49.5° - - -
2/27 11:00pm 272 9 G 17 53° 99% - - 52° 55.9° 49.5° - - -
2/27 10:50pm 269 9 G 15 53° 97% - - 53° 55.9° 49.5° - - -
2/27 10:40pm 227 16 G 26 54° 96% - - 53° 55.9° 49.5° - - -
2/27 10:30pm 205 17 G 32 55° 94% - - 53° 55.9° 49.5° - - -
2/27 10:20pm 199 18 G 28 54° 92% - - 52° 55.9° 49.5° - - -
2/27 10:10pm 206 21 G 35 54° 94% - - 52° 55.9° 49.5° - - -
2/27 10:00pm 214 17 G 29 54° 94% - - 53° 55.9° 49.5° - - -
2/27 9:50pm 199 18 G 29 55° 93% - - 53° 55.9° 49.5° - - -
2/27 9:40pm 203 20 G 29 54° 94% - - 53° 55.9° 49.5° - - -
2/27 9:30pm 204 16 G 25 55° 94% - - 53° 55.9° 49.5° - - -
2/27 9:20pm 210 14 G 26 55° 93% - - 53° 55.9° 49.5° - - -
2/27 9:10pm 193 10 G 19 55° 93% - - 53° 55.9° 49.5° - - -
2/27 9:00pm 193 12 G 24 55° 92% - - 53° 55.9° 49.5° - - -
2/27 8:50pm 194 12 G 29 55° 93% - - 53° 55.9° 49.5° - - -
2/27 8:40pm 181 12 G 20 55° 93% - - 53° 55.9° 49.5° - - -
2/27 8:30pm 192 12 G 25 55° 94% - - 53° 55.9° 49.5° - - -
2/27 8:20pm 200 17 G 30 55° 94% - - 53° 55.9° 49.5° - - -
2/27 8:10pm 200 16 G 28 55° 93% - - 53° 55.9° 49.5° - - -
2/27 8:00pm 197 17 G 29 55° 93% - - 53° 55.9° 49.5° - - -
2/27 7:50pm 198 14 G 27 54° 95% - - 53° 55.9° 49.5° - - -
2/27 7:40pm 187 11 G 25 54° 95% - - 53° 55.9° 49.5° - - -
2/27 7:30pm 190 13 G 23 54° 95% - - 53° 55.9° 49.5° - - -
2/27 7:20pm 184 14 G 24 54° 95% - - 53° 55.9° 49.5° - - -
2/27 7:10pm 172 12 G 22 54° 96% - - 53° 55.9° 49.5° - - -
2/27 7:00pm 176 13 G 26 54° 95% - - 53° 55.9° 49.5° - - -
2/27 6:50pm 177 13 G 24 54° 95% - - 53° 55.9° 49.5° - - -
2/27 6:40pm 181 15 G 27 54° 95% - - 53° 55.9° 49.5° - - -
2/27 6:30pm 184 15 G 31 54° 94% - - 53° 55.9° 49.5° - - -
2/27 6:20pm 179 9 G 22 54° 94% - - 53° 55.9° 49.5° - - -
2/27 6:10pm 182 10 G 20 54° 94% - - 53° 55.9° 49.5° - - -
2/27 6:00pm 181 14 G 20 54° 93% - - 53° 55.9° 49.5° - - -
2/27 5:50pm 182 13 G 20 55° 94% - - 53° 55.9° 49.5° - - -
2/27 5:40pm 184 13 G 23 55° 94% - - 53° 55.9° 49.5° - - -
2/27 5:30pm 177 12 G 18 55° 95% - - 53° 55.9° 49.5° - - -
2/27 5:20pm 185 11 G 19 55° 95% - - 53° 55.9° 49.5° - - -
2/27 5:10pm 185 12 G 21 55° 96% - - 53° 55.9° 49.5° - - -
2/27 5:00pm 188 12 G 22 55° 96% - - 54° 55.9° 49.5° - - -
2/27 4:50pm 194 12 G 21 55° 96% - - 54° 55.9° 49.5° - - -
2/27 4:40pm 201 11 G 21 55° 95% - - 54° 55.9° 49.5° - - -
2/27 4:30pm 194 14 G 22 55° 95% - - 53° 55.9° 49.5° - - -
2/27 4:20pm 198 16 G 29 55° 96% - - 54° 55.9° 49.5° - - -
2/27 4:10pm 195 11 G 17 55° 97% - - 54° 55.9° 49.5° - - -
2/27 4:00pm 192 13 G 27 55° 97% - - 54° 55.9° 49.5° - - -
2/27 3:50pm 184 16 G 30 55° 97% - - 54° 55.9° 49.5° - - -
2/27 3:40pm 181 16 G 25 55° 98% - - 54° 55.9° 49.5° - - -
2/27 3:30pm 182 14 G 24 55° 98% - - 54° 55.9° 49.5° - - -
2/27 3:20pm 181 13 G 23 55° 96% - - 54° 55.9° 49.5° - - -
2/27 3:10pm 181 11 G 20 55° 95% - - 54° 55.9° 49.5° - - -
2/27 3:00pm 188 12 G 19 55° 95% - - 54° 55.9° 49.5° - - -
2/27 2:50pm 194 16 G 29 55° 95% - - 54° 55.9° 49.5° - - -
2/27 2:40pm 200 17 G 26 55° 96% - - 54° 55.9° 49.5° - - -
2/27 2:30pm 199 20 G 33 55° 96% - - 54° 55.9° 49.5° - - -
2/27 2:20pm 201 18 G 27 55° 96% - - 54° 55.9° 49.5° - - -
2/27 2:10pm 206 17 G 31 54° 96% - - 53° 55.9° 49.5° - - -
2/27 2:00pm 197 17 G 29 54° 96% - - 53° 55.9° 49.5° - - -
2/27 1:50pm 199 17 G 33 54° 95% - - 53° 55.9° 49.5° - - -
2/27 1:40pm 197 20 G 28 54° 96% - - 53° 55.9° 49.5° - - -
2/27 1:30pm 190 17 G 31 54° 96% - - 53° 55.9° 49.5° - - -
2/27 1:20pm 194 19 G 35 54° 96% - - 53° 55.9° 49.5° - - -
2/27 1:10pm 187 19 G 30 54° 95% - - 53° 55.9° 49.5° - - -
2/27 1:00pm 187 22 G 34 54° 96% - - 53° 55.9° 49.5° - - -
2/27 12:50pm 189 23 G 34 54° 96% - - 53° 55.9° 49.5° - - -
2/27 12:40pm 192 21 G 39 54° 96% - - 53° 55.9° 49.5° - - -
2/27 12:30pm 191 23 G 36 54° 96% - - 53° 55.9° 49.5° - - -
2/27 12:20pm 188 21 G 33 54° 96% - - 53° 55.9° 49.5° - - -
2/27 12:10pm 197 21 G 38 54° 96% - - 53° 55.9° 49.5° - - -
2/27 12:00pm 193 20 G 30 54° 96% - - 53° 55.9° 49.5° - - -
2/27 11:50am 191 19 G 30 55° 95% - - 53° 55.9° 49.5° - - -
2/27 11:40am 187 22 G 36 55° 95% - - 53° 55.9° 49.5° - - -
2/27 11:30am 192 18 G 37 54° 96% - - 53° 55.9° 49.5° - - -
2/27 11:20am 180 14 G 28 54° 96% - - 53° 55.9° 49.5° - - -
2/27 11:10am 177 13 G 25 54° 95% - - 53° 55.9° 49.5° - - -
2/27 11:00am 192 17 G 34 54° 95% - - 53° 55.9° 49.5° - - -
2/27 10:50am 185 13 G 26 54° 96% - - 53° 55.9° 49.5° - - -
2/27 10:40am 195 9 G 18 55° 96% - - 54° 55.9° 49.5° - - -
2/27 10:30am 214 12 G 27 55° 96% - - 54° 55.9° 49.5° - - -
2/27 10:20am 208 13 G 27 55° 96% - - 54° 55.9° 49.5° - - -
2/27 10:10am 215 16 G 27 55° 95% - - 54° 55.9° 49.5° - - -
2/27 10:00am 201 14 G 28 55° 95% - - 54° 55.9° 49.5° - - -
2/27 9:50am 210 16 G 30 55° 95% - - 54° 55.9° 49.5° - - -
2/27 9:40am 215 14 G 29 55° 96% - - 54° 55.9° 49.5° - - -
2/27 9:30am 217 13 G 25 56° 95% - - 54° 55.9° 49.5° - - -
2/27 9:20am 207 12 G 19 55° 96% - - 54° 55.8° 49.5° - - -
2/27 9:10am 205 11 G 19 55° 97% - - 54° 55.8° 49.5° - - -
2/27 9:00am 202 11 G 20 55° 97% - - 54° 55.8° 49.5° - - -
2/27 8:50am 189 17 G 29 55° 96% - - 54° 55.8° 49.5° - - -
2/27 8:40am 184 15 G 25 55° 96% - - 54° 55.8° 49.5° - - -
2/27 8:30am 185 14 G 23 55° 96% - - 54° 55.8° 49.5° - - -
2/27 8:20am 178 11 G 18 55° 96% - - 54° 55.8° 49.5° - - -
2/27 8:10am 186 11 G 17 55° 96% - - 54° 55.8° 49.5° - - -
2/27 8:00am 183 11 G 19 55° 96% - - 54° 55.8° 49.5° - - -
2/27 7:50am 197 13 G 23 55° 95% - - 54° 55.8° 49.5° - - -
2/27 7:40am 192 15 G 27 55° 95% - - 54° 55.8° 49.5° - - -
2/27 7:30am 188 15 G 21 55° 95% - - 54° 55.8° 49.5° - - -
2/27 7:20am 186 14 G 26 55° 96% - - 54° 55.8° 49.5° - - -
2/27 7:10am 186 16 G 26 55° 95% - - 54° 55.8° 49.5° - - -
2/27 7:00am 191 17 G 30 55° 95% - - 54° 55.8° 49.5° - - -
2/27 6:50am 192 17 G 26 55° 96% - - 54° 55.8° 49.5° - - -
2/27 6:40am 195 19 G 35 55° 96% - - 54° 55.8° 49.5° - - -
2/27 6:30am 189 19 G 36 55° 95% - - 54° 55.8° 49.5° - - -
2/27 6:20am 183 19 G 28 56° 94% - - 54° 55.8° 49.5° - - -
2/27 6:10am 191 16 G 28 55° 95% - - 54° 55.8° 49.5° - - -
2/27 6:00am 188 17 G 26 55° 95% - - 54° 55.8° 49.5° - - -
2/27 5:50am 187 16 G 25 56° 95% - - 54° 55.8° 49.5° - - -
2/27 5:40am 191 17 G 27 55° 97% - - 54° 55.5° 49.5° - - -
2/27 5:30am 189 16 G 28 55° 98% - - 54° 55.3° 49.5° - - -
2/27 5:20am 186 14 G 29 55° 97% - - 54° 55.3° 49.5° - - -
2/27 5:10am 190 14 G 23 55° 97% - - 54° 55.3° 49.5° - - -
2/27 5:00am 177 10 G 17 55° 97% - - 54° 55° 49.5° - - -
2/27 4:50am 180 11 G 19 55° 97% - - 54° 55° 49.5° - - -
2/27 4:40am 178 12 G 19 55° 97% - - 54° 54.9° 49.5° - - -
2/27 4:30am 178 13 G 20 55° 97% - - 54° 54.8° 49.5° - - -
2/27 4:20am 181 11 G 17 54° 97% - - 54° 54.6° 49.5° - - -
2/27 4:10am 181 13 G 23 54° 96% - - 54° 54.6° 49.5° - - -
2/27 4:00am 180 12 G 19 54° 98% - - 54° 54.5° 49.5° - - -
2/27 3:50am 176 12 G 23 54° 100% - - 54° 54° 49.5° - - -
2/27 3:40am 156 7 G 16 52° 100% - - 52° 53.2° 49.5° - - -
2/27 3:30am 111 5 G 10 51° 100% - - 51° 51.7° 49.5° - - -
2/27 3:20am 107 5 G 8 51° 100% - - 51° 51.5° 49.5° - - -
2/27 3:10am 103 6 G 10 51° 100% - - 51° 51.5° 49.5° - - -
2/27 3:00am 106 5 G 8 51° 100% - - 51° 51.1° 49.5° - - -
2/27 2:50am 108 6 G 9 51° 100% - - 51° 50.9° 49.5° - - -
2/27 2:40am 105 5 G 8 51° 100% - - 51° 50.9° 49.5° - - -
2/27 2:30am 74 4 G 7 51° 100% - - 51° 50.8° 49.5° - - -
2/27 2:20am 61 4 G 8 50° 100% - - 50° 50.7° 49.5° - - -
2/27 2:10am 67 4 G 7 50° 100% - - 50° 50.6° 49.5° - - -
2/27 2:00am 73 4 G 7 50° 100% - - 50° 50.4° 49.5° - - -
2/27 1:50am 82 5 G 7 50° 100% - - 50° 50.2° 49.5° - - -
2/27 1:40am 80 4 G 7 50° 100% - - 50° 50.1° 49.5° - - -
2/27 1:30am 73 4 G 6 50° 100% - - 50° 50.1° 49.5° - - -
2/27 1:20am 69 3 G 6 50° 100% - - 50° 50.1° 49.5° - - -
2/27 1:10am 57 1 G 5 50° 100% - - 50° 50.1° 49.5° - - -
2/27 1:00am 56 2 G 5 50° 100% - - 50° 50.1° 49.5° - - -
2/27 12:50am 59 1 G 4 50° 100% - - 50° 50.1° 49.5° - - -
2/27 12:40am 47 2 G 5 50° 100% - - 50° 50.1° 49.5° - - -
2/27 12:30am 50 4 G 5 50° 100% - - 50° 50.1° 49.5° - - -
2/27 12:20am 67 3 G 5 50° 100% - - 50° 50.1° 49.5° - - -
2/27 12:10am 77 4 G 5 50° 100% - - 50° 50.1° 49.6° - - -
2/27 12:00am 88 1 G 5 50° 100% - - 50° 56.9° 46.8° - - -
2/26 11:50pm 85 2 G 4 50° 100% - - 50° 56.9° 46.8° - - -
2/26 11:40pm 58 3 G 5 50° 99% - - 49° 56.9° 46.8° - - -
2/26 11:30pm 69 4 G 6 50° 99% - - 49° 56.9° 46.8° - - -
2/26 11:20pm 80 1 G 5 50° 98% - - 50° 56.9° 46.8° - - -
2/26 11:10pm 0 0 G 0 50° 98% - - 50° 56.9° 46.8° - - -
2/26 11:00pm 0 0 G 0 50° 98% - - 50° 56.9° 46.8° - - -
2/26 10:50pm 0 0 G 0 50° 98% - - 50° 56.9° 46.8° - - -
2/26 10:40pm 137 2 G 4 51° 97% - - 50° 56.9° 46.8° - - -
2/26 10:30pm 134 2 G 4 50° 97% - - 50° 56.9° 46.8° - - -
2/26 10:20pm 132 2 G 3 51° 96% - - 50° 56.9° 46.8° - - -
2/26 10:10pm 103 1 G 4 51° 93% - - 49° 56.9° 46.8° - - -
2/26 10:00pm 103 1 G 3 50° 93% - - 48° 56.9° 46.8° - - -
2/26 9:50pm 131 2 G 4 50° 93% - - 48° 56.9° 46.8° - - -
2/26 9:40pm 265 1 G 3 50° 94% - - 49° 56.9° 46.8° - - -
2/26 9:30pm 118 0 G 2 50° 94% - - 49° 56.9° 46.8° - - -
2/26 9:20pm 34 1 G 3 50° 94% - - 49° 56.9° 46.8° - - -
2/26 9:10pm 0 0 G 0 50° 93% - - 49° 56.9° 46.8° - - -
2/26 9:00pm 55 0 G 4 51° 92% - - 48° 56.9° 46.8° - - -
2/26 8:50pm 215 0 G 2 51° 90% - - 48° 56.9° 46.8° - - -
2/26 8:40pm 202 2 G 4 51° 92% - - 49° 56.9° 46.8° - - -
2/26 8:30pm 218 3 G 7 51° 93% - - 49° 56.9° 46.8° - - -
2/26 8:20pm 255 3 G 6 51° 93% - - 49° 56.9° 46.8° - - -
2/26 8:10pm 239 4 G 7 51° 93% - - 49° 56.9° 46.8° - - -
2/26 8:00pm 230 6 G 11 51° 93% - - 49° 56.9° 46.8° - - -
2/26 7:50pm 225 7 G 13 51° 93% - - 49° 56.9° 46.8° - - -
2/26 7:40pm 225 7 G 12 51° 93% - - 49° 56.9° 46.8° - - -
2/26 7:30pm 227 6 G 10 51° 91% - - 49° 56.9° 46.8° - - -
2/26 7:20pm 223 5 G 9 51° 90% - - 48° 56.9° 46.8° - - -
2/26 7:10pm 218 4 G 8 51° 90% - - 48° 56.9° 46.8° - - -
2/26 7:00pm 225 4 G 9 51° 90% - - 48° 56.9° 46.8° - - -
2/26 6:50pm 223 5 G 10 51° 89% - - 48° 56.9° 46.8° - - -
2/26 6:40pm 226 5 G 9 51° 88% - - 48° 56.9° 46.8° - - -
2/26 6:30pm 220 6 G 11 52° 87% - - 48° 56.9° 46.8° - - -
2/26 6:20pm 228 8 G 15 52° 87% - - 48° 56.9° 46.8° - - -
2/26 6:10pm 219 10 G 15 52° 84% - - 48° 56.9° 46.8° - - -
2/26 6:00pm 236 8 G 14 53° 86% - - 48° 56.9° 46.8° - - -
2/26 5:50pm 242 8 G 12 53° 83% - - 48° 56.9° 46.8° - - -
2/26 5:40pm 234 10 G 17 53° 82% - - 48° 56.9° 46.8° - - -
2/26 5:30pm 215 10 G 15 53° 80% - - 47° 56.9° 46.8° - - -
2/26 5:20pm 219 7 G 14 54° 78% - - 47° 56.9° 46.8° - - -
2/26 5:10pm 224 10 G 17 54° 78% - - 47° 56.9° 46.8° - - -
2/26 5:00pm 202 10 G 17 54° 76% - - 47° 56.9° 46.8° - - -